createdAt,value
2017-09-04T00:01:01.843Z,9.71
2017-09-04T00:02:07.888Z,9.76
2017-09-04T00:03:14.122Z,9.91
2017-09-04T00:04:21.252Z,10.04
2017-09-04T00:05:27.430Z,9.91
2017-09-04T00:06:33.670Z,9.93
2017-09-04T00:07:39.951Z,9.94
2017-09-04T00:08:46.134Z,9.83
2017-09-04T00:09:52.373Z,9.77
2017-09-04T00:11:00.016Z,9.68
2017-09-04T00:12:07.174Z,9.62
2017-09-04T00:13:13.463Z,9.57
2017-09-04T00:14:20.206Z,9.56
2017-09-04T00:15:27.334Z,9.54
2017-09-04T00:16:34.074Z,9.55
2017-09-04T00:17:41.674Z,9.55
2017-09-04T00:18:47.779Z,9.59
2017-09-04T00:19:54.580Z,9.60
2017-09-04T00:21:01.351Z,9.62
2017-09-04T00:22:07.937Z,9.70
2017-09-04T00:23:14.976Z,9.85
2017-09-04T00:24:21.615Z,9.85
2017-09-04T00:25:28.949Z,9.85
2017-09-04T00:26:35.358Z,9.82
2017-09-04T00:27:42.644Z,9.81
2017-09-04T00:28:50.155Z,9.80
2017-09-04T00:29:56.655Z,9.77
2017-09-04T00:31:03.156Z,9.81
2017-09-04T00:32:10.092Z,9.73
2017-09-04T00:33:16.563Z,9.68
2017-09-04T00:34:23.564Z,9.65
2017-09-04T00:35:29.952Z,9.63
2017-09-04T00:36:36.763Z,9.75
2017-09-04T00:37:43.599Z,9.71
2017-09-04T00:38:49.400Z,9.63
2017-09-04T00:39:55.818Z,9.59
2017-09-04T00:41:02.027Z,9.51
2017-09-04T00:42:08.215Z,9.50
2017-09-04T00:43:14.414Z,9.49
2017-09-04T00:44:20.795Z,9.48
2017-09-04T00:45:27.175Z,9.46
2017-09-04T00:46:33.331Z,9.44
2017-09-04T00:47:39.513Z,9.45
2017-09-04T00:48:45.988Z,9.43
2017-09-04T00:49:52.282Z,9.50
2017-09-04T00:50:58.484Z,9.55
2017-09-04T00:52:05.149Z,9.51
2017-09-04T00:53:11.957Z,9.48
2017-09-04T00:54:19.302Z,9.46
2017-09-04T00:55:25.411Z,9.49
2017-09-04T00:56:32.948Z,9.51
2017-09-04T00:57:39.358Z,9.56
2017-09-04T00:58:45.778Z,9.50
2017-09-04T00:59:52.316Z,9.45
2017-09-04T01:00:58.663Z,9.45
2017-09-04T01:02:05.848Z,9.50
2017-09-04T01:03:12.156Z,9.48
2017-09-04T01:04:18.988Z,9.49
2017-09-04T01:05:25.493Z,9.49
2017-09-04T01:06:31.084Z,9.51
2017-09-04T01:07:37.186Z,9.48
2017-09-04T01:08:43.947Z,9.50
2017-09-04T01:09:51.318Z,9.50
2017-09-04T01:10:58.612Z,9.68
2017-09-04T01:12:06.123Z,9.78
2017-09-04T01:13:12.012Z,9.81
2017-09-04T01:14:18.634Z,9.81
2017-09-04T01:15:25.455Z,9.76
2017-09-04T01:16:32.705Z,9.71
2017-09-04T01:17:38.896Z,9.81
2017-09-04T01:18:45.989Z,9.89
2017-09-04T01:19:51.829Z,9.92
2017-09-04T01:20:58.163Z,9.89
2017-09-04T01:22:04.341Z,9.86
2017-09-04T01:23:12.059Z,9.69
2017-09-04T01:24:18.710Z,9.52
2017-09-04T01:25:24.836Z,9.46
2017-09-04T01:26:31.250Z,9.46
2017-09-04T01:27:37.477Z,9.37
2017-09-04T01:28:44.830Z,9.29
2017-09-04T01:29:51.022Z,9.20
2017-09-04T01:30:58.056Z,9.15
2017-09-04T01:32:04.199Z,9.08
2017-09-04T01:33:10.553Z,9.07
2017-09-04T01:34:17.486Z,9.11
2017-09-04T01:35:24.246Z,9.13
2017-09-04T01:36:30.926Z,9.07
2017-09-04T01:37:37.303Z,9.05
2017-09-04T01:38:44.262Z,9.06
2017-09-04T01:39:50.876Z,9.02
2017-09-04T01:40:57.169Z,9.04
2017-09-04T01:42:03.254Z,9.14
2017-09-04T01:43:11.249Z,9.21
2017-09-04T01:44:17.358Z,9.27
2017-09-04T01:45:23.611Z,9.34
2017-09-04T01:46:30.063Z,9.42
2017-09-04T01:47:36.303Z,9.46
2017-09-04T01:48:42.429Z,9.45
2017-09-04T01:49:48.743Z,9.42
2017-09-04T01:50:55.003Z,9.39
2017-09-04T01:52:01.368Z,9.28
2017-09-04T01:53:08.465Z,9.16
2017-09-04T01:54:14.673Z,9.05
2017-09-04T01:55:20.852Z,8.93
2017-09-04T01:56:27.281Z,8.89
2017-09-04T01:57:33.365Z,8.98
2017-09-04T01:58:39.599Z,8.97
2017-09-04T01:59:46.811Z,8.91
2017-09-04T02:00:53.161Z,8.87
2017-09-04T02:02:00.124Z,8.85
2017-09-04T02:03:07.815Z,8.98
2017-09-04T02:04:15.134Z,9.07
2017-09-04T02:05:21.548Z,9.06
2017-09-04T02:06:27.772Z,8.94
2017-09-04T02:07:34.031Z,8.73
2017-09-04T02:08:40.321Z,8.67
2017-09-04T02:09:46.878Z,8.63
2017-09-04T02:10:53.924Z,8.58
2017-09-04T02:12:00.468Z,8.56
2017-09-04T02:13:06.521Z,8.53
2017-09-04T02:14:12.739Z,8.51
2017-09-04T02:15:19.001Z,8.48
2017-09-04T02:16:25.192Z,8.48
2017-09-04T02:17:31.821Z,8.50
2017-09-04T02:18:38.611Z,8.55
2017-09-04T02:19:45.464Z,8.58
2017-09-04T02:20:51.859Z,8.66
2017-09-04T02:21:58.676Z,8.59
2017-09-04T02:23:04.923Z,8.63
2017-09-04T02:24:11.851Z,8.74
2017-09-04T02:25:18.158Z,8.85
2017-09-04T02:26:24.436Z,8.88
2017-09-04T02:27:30.781Z,8.90
2017-09-04T02:28:37.200Z,8.93
2017-09-04T02:29:43.681Z,8.88
2017-09-04T02:30:51.650Z,8.67
2017-09-04T02:31:57.857Z,8.65
2017-09-04T02:33:04.789Z,8.64
2017-09-04T02:34:11.231Z,8.61
2017-09-04T02:35:17.336Z,8.54
2017-09-04T02:36:24.080Z,8.48
2017-09-04T02:37:30.242Z,8.40
2017-09-04T02:38:36.466Z,8.36
2017-09-04T02:39:42.778Z,8.41
2017-09-04T02:40:49.122Z,8.35
2017-09-04T02:41:55.258Z,8.30
2017-09-04T02:43:02.363Z,8.30
2017-09-04T02:44:08.644Z,8.37
2017-09-04T02:45:15.869Z,8.40
2017-09-04T02:46:22.940Z,8.38
2017-09-04T02:47:29.242Z,8.36
2017-09-04T02:48:35.603Z,8.44
2017-09-04T02:49:41.824Z,8.38
2017-09-04T02:50:48.548Z,8.31
2017-09-04T02:51:54.612Z,8.30
2017-09-04T02:53:01.696Z,8.45
2017-09-04T02:54:08.994Z,8.55
2017-09-04T02:55:15.176Z,8.57
2017-09-04T02:56:22.090Z,8.59
2017-09-04T02:57:28.200Z,8.58
2017-09-04T02:58:34.374Z,8.57
2017-09-04T02:59:41.219Z,8.59
2017-09-04T03:00:47.376Z,8.51
2017-09-04T03:01:53.817Z,8.49
2017-09-04T03:03:00.784Z,8.50
2017-09-04T03:04:07.779Z,8.46
2017-09-04T03:05:15.375Z,8.50
2017-09-04T03:06:22.236Z,8.48
2017-09-04T03:07:28.172Z,8.51
2017-09-04T03:08:34.352Z,8.62
2017-09-04T03:09:40.562Z,8.72
2017-09-04T03:10:46.986Z,8.77
2017-09-04T03:11:53.373Z,8.77
2017-09-04T03:12:59.014Z,8.66
2017-09-04T03:14:05.556Z,8.54
2017-09-04T03:15:12.025Z,8.47
2017-09-04T03:16:20.354Z,8.45
2017-09-04T03:17:25.860Z,8.58
2017-09-04T03:18:32.160Z,8.67
2017-09-04T03:19:39.702Z,8.67
2017-09-04T03:20:45.219Z,8.67
2017-09-04T03:21:51.135Z,8.69
2017-09-04T03:22:57.409Z,8.67
2017-09-04T03:24:03.212Z,8.60
2017-09-04T03:25:08.713Z,8.52
2017-09-04T03:26:14.251Z,8.45
2017-09-04T03:27:20.331Z,8.31
2017-09-04T03:28:25.800Z,8.33
2017-09-04T03:29:31.460Z,8.18
2017-09-04T03:30:36.681Z,8.10
2017-09-04T03:31:42.145Z,8.06
2017-09-04T03:32:47.330Z,8.07
2017-09-04T03:33:53.592Z,8.01
2017-09-04T03:34:59.698Z,7.96
2017-09-04T03:36:06.122Z,7.93
2017-09-04T03:37:12.729Z,7.94
2017-09-04T03:38:18.822Z,7.93
2017-09-04T03:39:24.930Z,7.90
2017-09-04T03:40:30.474Z,7.89
2017-09-04T03:41:35.935Z,7.89
2017-09-04T03:42:41.303Z,7.88
2017-09-04T03:43:46.700Z,7.87
2017-09-04T03:44:52.570Z,7.85
2017-09-04T03:45:58.009Z,7.86
2017-09-04T03:47:04.266Z,7.85
2017-09-04T03:48:10.978Z,7.84
2017-09-04T03:49:16.640Z,7.85
2017-09-04T03:50:22.027Z,7.85
2017-09-04T03:51:27.342Z,7.90
2017-09-04T03:52:32.796Z,8.02
2017-09-04T03:53:39.739Z,8.06
2017-09-04T03:54:45.703Z,8.04
2017-09-04T03:55:52.475Z,8.02
2017-09-04T03:56:58.509Z,7.96
2017-09-04T03:58:04.164Z,7.89
2017-09-04T03:59:10.492Z,7.85
2017-09-04T04:00:16.270Z,7.87
2017-09-04T04:01:22.406Z,7.91
2017-09-04T04:02:28.644Z,7.97
2017-09-04T04:03:34.592Z,8.10
2017-09-04T04:04:39.775Z,8.28
2017-09-04T04:05:45.073Z,8.36
2017-09-04T04:06:51.063Z,8.35
2017-09-04T04:07:57.393Z,8.26
2017-09-04T04:09:03.087Z,8.11
2017-09-04T04:10:08.660Z,7.93
2017-09-04T04:11:14.750Z,7.90
2017-09-04T04:12:21.027Z,7.86
2017-09-04T04:13:28.220Z,7.87
2017-09-04T04:14:35.262Z,7.84
2017-09-04T04:15:43.332Z,7.79
2017-09-04T04:16:49.612Z,7.81
2017-09-04T04:17:56.179Z,7.78
2017-09-04T04:19:02.862Z,7.74
2017-09-04T04:20:09.085Z,7.70
2017-09-04T04:21:16.008Z,7.74
2017-09-04T04:22:25.272Z,7.86
2017-09-04T04:23:31.082Z,7.84
2017-09-04T04:24:36.984Z,7.89
2017-09-04T04:25:43.281Z,7.89
2017-09-04T04:26:50.431Z,8.05
2017-09-04T04:27:56.611Z,8.09
2017-09-04T04:29:03.154Z,8.06
2017-09-04T04:30:09.699Z,7.98
2017-09-04T04:31:15.671Z,7.93
2017-09-04T04:32:22.907Z,7.94
2017-09-04T04:33:29.123Z,7.91
2017-09-04T04:34:35.307Z,7.89
2017-09-04T04:35:42.045Z,7.98
2017-09-04T04:36:48.344Z,8.02
2017-09-04T04:37:54.788Z,8.10
2017-09-04T04:39:01.275Z,8.03
2017-09-04T04:40:08.004Z,7.95
2017-09-04T04:41:14.771Z,7.99
2017-09-04T04:42:21.861Z,7.98
2017-09-04T04:43:28.791Z,7.94
2017-09-04T04:44:35.199Z,7.96
2017-09-04T04:45:41.360Z,8.08
2017-09-04T04:46:47.734Z,8.22
2017-09-04T04:47:54.347Z,8.31
2017-09-04T04:49:02.950Z,8.41
2017-09-04T04:50:10.139Z,8.37
2017-09-04T04:51:16.642Z,8.33
2017-09-04T04:52:22.991Z,8.29
2017-09-04T04:53:30.601Z,8.22
2017-09-04T04:54:37.027Z,8.18
2017-09-04T04:55:44.153Z,8.15
2017-09-04T04:56:50.459Z,8.19
2017-09-04T04:57:56.665Z,8.24
2017-09-04T04:59:03.919Z,8.34
2017-09-04T05:00:10.116Z,8.51
2017-09-04T05:01:17.551Z,8.57
2017-09-04T05:02:24.897Z,8.53
2017-09-04T05:03:32.258Z,8.41
2017-09-04T05:04:38.428Z,8.35
2017-09-04T05:05:44.694Z,8.32
2017-09-04T05:06:50.849Z,8.32
2017-09-04T05:07:57.261Z,8.32
2017-09-04T05:09:04.571Z,8.32
2017-09-04T05:10:12.023Z,8.35
2017-09-04T05:11:18.250Z,8.37
2017-09-04T05:12:25.194Z,8.35
2017-09-04T05:13:31.430Z,8.38
2017-09-04T05:14:38.484Z,8.42
2017-09-04T05:15:45.323Z,8.55
2017-09-04T05:16:51.541Z,8.58
2017-09-04T05:17:57.764Z,8.60
2017-09-04T05:19:03.966Z,8.63
2017-09-04T05:20:10.896Z,8.67
2017-09-04T05:21:17.019Z,8.78
2017-09-04T05:22:23.149Z,8.80
2017-09-04T05:23:29.416Z,8.83
2017-09-04T05:24:35.612Z,8.91
2017-09-04T05:25:42.454Z,9.02
2017-09-04T05:26:49.584Z,9.06
2017-09-04T05:27:56.781Z,9.09
2017-09-04T05:29:04.047Z,9.11
2017-09-04T05:30:10.220Z,9.14
2017-09-04T05:31:16.349Z,9.16
2017-09-04T05:32:23.370Z,9.24
2017-09-04T05:33:30.185Z,9.28
2017-09-04T05:34:36.403Z,9.33
2017-09-04T05:35:43.535Z,9.37
2017-09-04T05:36:51.089Z,9.46
2017-09-04T05:37:57.307Z,9.63
2017-09-04T05:39:04.538Z,9.66
2017-09-04T05:40:10.727Z,9.70
2017-09-04T05:41:16.918Z,9.76
2017-09-04T05:42:23.156Z,9.79
2017-09-04T05:43:30.812Z,9.82
2017-09-04T05:44:37.150Z,9.91
2017-09-04T05:45:43.415Z,10.01
2017-09-04T05:46:49.865Z,10.12
2017-09-04T05:47:56.024Z,10.26
2017-09-04T05:49:02.932Z,10.37
2017-09-04T05:50:10.914Z,10.40
2017-09-04T05:51:16.986Z,10.46
2017-09-04T05:52:23.095Z,10.53
2017-09-04T05:53:29.357Z,10.65
2017-09-04T05:54:35.775Z,10.57
2017-09-04T05:55:41.837Z,10.69
2017-09-04T05:56:48.056Z,10.73
2017-09-04T05:57:54.913Z,10.74
2017-09-04T05:59:01.175Z,10.83
2017-09-04T06:00:07.150Z,10.93
2017-09-04T06:01:13.232Z,11.01
2017-09-04T06:02:19.432Z,10.99
2017-09-04T06:03:25.857Z,11.11
2017-09-04T06:04:32.778Z,11.17
2017-09-04T06:05:39.891Z,11.24
2017-09-04T06:06:46.120Z,11.29
2017-09-04T06:07:52.325Z,11.31
2017-09-04T06:08:59.580Z,11.44
2017-09-04T06:10:05.768Z,11.47
2017-09-04T06:20:41.570Z,11.50
2017-09-04T06:21:47.630Z,11.59
2017-09-04T06:22:53.709Z,11.71
2017-09-04T06:24:01.527Z,11.74
2017-09-04T06:25:10.465Z,11.81
2017-09-04T06:26:25.047Z,11.88
2017-09-04T06:27:38.423Z,11.91
2017-09-04T06:28:51.254Z,11.84
2017-09-04T06:30:07.932Z,11.93
2017-09-04T06:31:21.166Z,12.02
2017-09-04T06:32:28.848Z,12.19
2017-09-04T06:33:37.409Z,12.15
2017-09-04T06:34:46.026Z,12.22
2017-09-04T06:35:53.835Z,12.24
2017-09-04T06:37:02.366Z,12.31
2017-09-04T06:38:11.199Z,12.29
2017-09-04T06:39:17.780Z,12.42
2017-09-04T06:40:27.345Z,12.41
2017-09-04T06:41:35.909Z,12.43
2017-09-04T06:42:45.335Z,12.54
2017-09-04T06:43:53.935Z,12.64
2017-09-04T06:45:01.144Z,12.60
2017-09-04T06:46:07.319Z,12.59
2017-09-04T06:47:13.495Z,12.60
2017-09-04T06:48:19.610Z,12.71
2017-09-04T06:49:25.502Z,12.86
2017-09-04T06:50:34.114Z,12.86
2017-09-04T06:51:40.854Z,13.05
2017-09-04T06:52:47.023Z,12.95
2017-09-04T06:53:53.154Z,13.10
2017-09-04T06:54:59.042Z,13.20
2017-09-04T06:56:05.103Z,13.30
2017-09-04T06:57:11.157Z,13.32
2017-09-04T06:58:17.203Z,13.40
2017-09-04T06:59:23.925Z,13.57
2017-09-04T07:00:29.821Z,13.56
2017-09-04T07:01:35.936Z,13.56
2017-09-04T07:02:42.282Z,13.69
2017-09-04T07:03:49.380Z,13.68
2017-09-04T07:04:55.543Z,13.76
2017-09-04T07:06:03.438Z,13.59
2017-09-04T07:07:10.151Z,13.47
2017-09-04T07:08:16.180Z,13.44
2017-09-04T07:09:22.470Z,13.58
2017-09-04T07:10:28.539Z,13.70
2017-09-04T07:11:34.605Z,13.74
2017-09-04T07:12:40.696Z,13.82
2017-09-04T07:13:47.136Z,13.87
2017-09-04T07:14:54.113Z,13.83
2017-09-04T07:16:00.185Z,13.85
2017-09-04T07:17:06.245Z,13.89
2017-09-04T07:18:12.297Z,13.91
2017-09-04T07:19:18.386Z,13.89
2017-09-04T07:20:24.439Z,14.06
2017-09-04T07:21:31.288Z,14.26
2017-09-04T07:22:37.343Z,14.34
2017-09-04T07:23:43.382Z,14.14
2017-09-04T07:24:49.816Z,14.16
2017-09-04T07:25:55.887Z,14.28
2017-09-04T07:27:01.960Z,14.27
2017-09-04T07:28:08.333Z,14.45
2017-09-04T07:29:14.522Z,14.59
2017-09-04T07:30:20.588Z,14.65
2017-09-04T07:31:26.641Z,14.74
2017-09-04T07:32:33.730Z,14.87
2017-09-04T07:33:39.853Z,14.92
2017-09-04T07:34:46.710Z,14.78
2017-09-04T07:35:52.774Z,14.80
2017-09-04T07:36:58.852Z,14.94
2017-09-04T07:38:04.919Z,15.07
2017-09-04T07:39:10.969Z,15.08
2017-09-04T07:40:16.969Z,15.08
2017-09-04T07:41:22.996Z,15.28
2017-09-04T07:42:28.715Z,15.30
2017-09-04T07:43:34.863Z,15.16
2017-09-04T07:44:40.885Z,15.20
2017-09-04T07:45:46.907Z,15.18
2017-09-04T07:46:52.966Z,15.30
2017-09-04T07:47:59.004Z,15.44
2017-09-04T07:49:05.115Z,15.43
2017-09-04T07:50:11.174Z,15.37
2017-09-04T07:51:16.930Z,15.54
2017-09-04T07:52:23.090Z,15.68
2017-09-04T07:53:29.138Z,15.75
2017-09-04T07:54:35.262Z,15.80
2017-09-04T07:55:41.897Z,15.77
2017-09-04T07:56:47.932Z,15.69
2017-09-04T07:57:53.969Z,15.85
2017-09-04T07:58:59.997Z,15.91
2017-09-04T08:00:06.604Z,15.96
2017-09-04T08:01:12.709Z,16.14
2017-09-04T08:02:18.769Z,16.15
2017-09-04T08:03:24.794Z,16.12
2017-09-04T08:04:30.873Z,16.31
2017-09-04T08:05:36.970Z,16.19
2017-09-04T08:06:44.446Z,16.25
2017-09-04T08:07:50.490Z,16.33
2017-09-04T08:08:56.585Z,16.30
2017-09-04T08:10:02.624Z,16.40
2017-09-04T08:11:08.693Z,16.49
2017-09-04T08:12:14.772Z,16.56
2017-09-04T08:13:20.813Z,16.58
2017-09-04T08:14:26.868Z,16.43
2017-09-04T08:15:32.899Z,16.62
2017-09-04T08:16:39.007Z,16.78
2017-09-04T08:17:45.041Z,16.96
2017-09-04T08:18:51.056Z,17.02
2017-09-04T08:19:57.314Z,17.06
2017-09-04T08:21:03.380Z,17.04
2017-09-04T08:22:11.098Z,17.04
2017-09-04T08:23:17.797Z,17.07
2017-09-04T08:24:23.806Z,17.05
2017-09-04T08:25:29.838Z,17.02
2017-09-04T08:26:35.903Z,17.10
2017-09-04T08:27:42.022Z,17.24
2017-09-04T08:28:48.086Z,17.24
2017-09-04T08:29:54.901Z,17.33
2017-09-04T08:31:00.957Z,17.38
2017-09-04T08:32:07.072Z,17.43
2017-09-04T08:33:13.122Z,17.59
2017-09-04T08:34:19.159Z,17.48
2017-09-04T08:35:26.159Z,17.56
2017-09-04T08:36:32.826Z,17.58
2017-09-04T08:37:38.880Z,17.44
2017-09-04T08:38:45.894Z,17.55
2017-09-04T08:39:51.999Z,17.62
2017-09-04T08:40:58.046Z,17.85
2017-09-04T08:42:04.106Z,17.97
2017-09-04T08:43:10.206Z,18.02
2017-09-04T08:44:16.259Z,18.01
2017-09-04T08:45:22.289Z,18.09
2017-09-04T08:46:28.365Z,17.99
2017-09-04T08:47:34.794Z,18.12
2017-09-04T08:48:40.827Z,18.19
2017-09-04T08:49:47.142Z,18.28
2017-09-04T08:50:53.223Z,18.35
2017-09-04T08:51:59.531Z,18.43
2017-09-04T08:53:05.636Z,18.40
2017-09-04T08:54:12.055Z,18.19
2017-09-04T08:55:18.759Z,18.36
2017-09-04T08:56:24.837Z,18.52
2017-09-04T08:57:32.010Z,18.58
2017-09-04T08:58:38.042Z,18.45
2017-09-04T08:59:44.794Z,18.57
2017-09-04T09:00:51.201Z,18.70
2017-09-04T09:01:57.132Z,18.56
2017-09-04T09:03:02.962Z,18.35
2017-09-04T09:04:09.214Z,18.51
2017-09-04T09:05:15.234Z,18.61
2017-09-04T09:06:22.274Z,18.66
2017-09-04T09:07:28.328Z,18.72
2017-09-04T09:08:34.370Z,18.67
2017-09-04T09:09:40.239Z,18.73
2017-09-04T09:10:46.927Z,18.75
2017-09-04T09:11:54.054Z,18.63
2017-09-04T09:13:00.095Z,18.79
2017-09-04T09:14:06.134Z,18.68
2017-09-04T09:15:11.966Z,18.88
2017-09-04T09:16:18.002Z,18.90
2017-09-04T09:17:24.962Z,19.10
2017-09-04T09:18:31.781Z,19.06
2017-09-04T09:19:38.153Z,19.18
2017-09-04T09:20:44.278Z,19.20
2017-09-04T09:21:50.320Z,19.21
2017-09-04T09:22:56.228Z,19.24
2017-09-04T09:24:02.088Z,19.17
2017-09-04T09:25:08.022Z,19.02
2017-09-04T09:26:14.382Z,19.20
2017-09-04T09:27:20.842Z,19.22
2017-09-04T09:28:26.702Z,19.16
2017-09-04T09:29:32.544Z,19.33
2017-09-04T09:30:38.625Z,19.19
2017-09-04T09:31:44.498Z,19.12
2017-09-04T09:32:50.564Z,19.15
2017-09-04T09:33:56.876Z,18.90
2017-09-04T09:35:02.945Z,18.94
2017-09-04T09:36:08.979Z,18.99
2017-09-04T09:37:15.058Z,19.07
2017-09-04T09:38:21.318Z,19.23
2017-09-04T09:39:27.427Z,19.40
2017-09-04T09:40:33.518Z,19.59
2017-09-04T09:41:39.686Z,19.67
2017-09-04T09:42:46.472Z,19.69
2017-09-04T09:43:52.533Z,19.65
2017-09-04T09:44:58.892Z,19.81
2017-09-04T09:46:04.935Z,19.87
2017-09-04T09:47:10.981Z,19.95
2017-09-04T09:48:17.283Z,20.07
2017-09-04T09:49:23.390Z,20.06
2017-09-04T09:50:29.487Z,20.20
2017-09-04T09:51:35.399Z,20.31
2017-09-04T09:52:41.336Z,20.31
2017-09-04T09:53:47.244Z,20.17
2017-09-04T09:54:53.368Z,20.11
2017-09-04T09:55:59.246Z,20.10
2017-09-04T09:57:05.130Z,20.00
2017-09-04T09:58:11.810Z,20.01
2017-09-04T09:59:18.254Z,19.92
2017-09-04T10:00:24.122Z,19.86
2017-09-04T10:01:29.831Z,20.20
2017-09-04T10:02:35.926Z,20.30
2017-09-04T10:03:41.778Z,20.38
2017-09-04T10:04:47.629Z,20.66
2017-09-04T10:05:53.471Z,20.75
2017-09-04T10:06:59.342Z,20.64
2017-09-04T10:08:05.245Z,20.74
2017-09-04T10:09:11.746Z,20.73
2017-09-04T10:10:17.712Z,20.43
2017-09-04T10:11:23.578Z,20.45
2017-09-04T10:12:30.518Z,20.55
2017-09-04T10:13:37.002Z,20.69
2017-09-04T10:14:42.845Z,20.77
2017-09-04T10:15:48.918Z,21.04
2017-09-04T10:16:54.798Z,21.22
2017-09-04T10:18:01.162Z,21.01
2017-09-04T10:19:07.119Z,21.13
2017-09-04T10:20:12.951Z,21.14
2017-09-04T10:21:18.823Z,20.93
2017-09-04T10:22:24.683Z,21.15
2017-09-04T10:23:30.606Z,21.21
2017-09-04T10:24:36.511Z,21.29
2017-09-04T10:25:42.404Z,20.95
2017-09-04T10:26:48.265Z,20.95
2017-09-04T10:27:54.128Z,21.20
2017-09-04T10:29:00.061Z,21.24
2017-09-04T10:30:05.931Z,21.66
2017-09-04T10:31:12.724Z,21.71
2017-09-04T10:32:18.587Z,21.66
2017-09-04T10:33:24.671Z,21.72
2017-09-04T10:34:31.221Z,21.74
2017-09-04T10:35:37.704Z,21.72
2017-09-04T10:36:43.540Z,21.43
2017-09-04T10:37:50.313Z,21.22
2017-09-04T10:38:56.233Z,21.30
2017-09-04T10:40:02.147Z,21.49
2017-09-04T10:41:08.634Z,21.38
2017-09-04T10:42:14.508Z,21.58
2017-09-04T10:43:20.593Z,21.75
2017-09-04T10:44:26.436Z,21.84
2017-09-04T10:45:32.342Z,21.91
2017-09-04T10:46:38.205Z,21.34
2017-09-04T10:47:45.230Z,21.27
2017-09-04T10:48:51.144Z,21.05
2017-09-04T10:49:56.992Z,20.73
2017-09-04T10:51:03.177Z,20.90
2017-09-04T10:52:09.050Z,20.63
2017-09-04T10:53:14.887Z,20.62
2017-09-04T10:54:20.758Z,20.40
2017-09-04T10:55:26.422Z,20.46
2017-09-04T10:56:32.524Z,20.49
2017-09-04T10:57:38.570Z,20.47
2017-09-04T10:58:44.604Z,20.26
2017-09-04T10:59:50.456Z,20.24
2017-09-04T11:00:56.510Z,19.92
2017-09-04T11:02:02.596Z,19.76
2017-09-04T11:03:09.360Z,19.70
2017-09-04T11:04:15.230Z,19.58
2017-09-04T11:05:21.342Z,19.11
2017-09-04T11:06:27.407Z,19.14
2017-09-04T11:07:33.486Z,19.21
2017-09-04T11:08:41.174Z,19.08
2017-09-04T11:09:47.022Z,19.02
2017-09-04T11:10:52.894Z,19.09
2017-09-04T11:11:59.393Z,19.15
2017-09-04T11:13:05.324Z,19.23
2017-09-04T11:14:11.556Z,19.20
2017-09-04T11:15:17.425Z,19.15
2017-09-04T11:16:23.261Z,19.16
2017-09-04T11:17:30.281Z,19.15
2017-09-04T11:18:36.226Z,19.04
2017-09-04T11:19:43.078Z,18.97
2017-09-04T11:20:48.963Z,18.83
2017-09-04T11:21:54.871Z,18.68
2017-09-04T11:23:00.703Z,18.76
2017-09-04T11:24:06.920Z,18.82
2017-09-04T11:25:13.419Z,18.90
2017-09-04T11:26:19.265Z,18.80
2017-09-04T11:27:25.149Z,18.72
2017-09-04T11:28:31.019Z,18.77
2017-09-04T11:29:37.166Z,19.03
2017-09-04T11:30:43.045Z,19.10
2017-09-04T11:31:48.890Z,19.35
2017-09-04T11:32:54.737Z,19.55
2017-09-04T11:34:00.600Z,19.75
2017-09-04T11:35:07.253Z,19.79
2017-09-04T11:36:13.099Z,19.93
2017-09-04T11:37:19.047Z,19.92
2017-09-04T11:38:25.093Z,19.87
2017-09-04T11:39:31.762Z,19.96
2017-09-04T11:40:37.851Z,20.17
2017-09-04T11:41:43.898Z,20.30
2017-09-04T11:42:49.935Z,20.27
2017-09-04T11:43:56.397Z,20.27
2017-09-04T11:45:02.450Z,20.48
2017-09-04T11:46:08.526Z,20.67
2017-09-04T11:47:14.547Z,20.86
2017-09-04T11:48:20.568Z,20.82
2017-09-04T11:49:26.630Z,20.68
2017-09-04T11:50:32.691Z,20.76
2017-09-04T11:51:38.582Z,20.89
2017-09-04T11:52:45.560Z,20.83
2017-09-04T11:53:51.589Z,21.00
2017-09-04T11:54:57.631Z,21.01
2017-09-04T11:56:03.662Z,21.01
2017-09-04T11:57:09.520Z,21.23
2017-09-04T11:58:15.646Z,21.29
2017-09-04T11:59:21.680Z,21.25
2017-09-04T12:00:29.112Z,21.24
2017-09-04T12:01:35.151Z,21.21
2017-09-04T12:02:41.255Z,21.27
2017-09-04T12:03:47.339Z,21.01
2017-09-04T12:04:53.424Z,21.31
2017-09-04T12:06:00.187Z,21.40
2017-09-04T12:07:06.055Z,21.56
2017-09-04T12:08:12.166Z,21.49
2017-09-04T12:09:18.296Z,21.17
2017-09-04T12:10:24.201Z,21.34
2017-09-04T12:11:30.065Z,21.71
2017-09-04T12:12:36.216Z,21.89
2017-09-04T12:13:42.399Z,22.12
2017-09-04T12:14:48.286Z,22.41
2017-09-04T12:15:54.347Z,22.22
2017-09-04T12:17:00.203Z,22.56
2017-09-04T12:18:07.455Z,22.82
2017-09-04T12:19:13.708Z,22.50
2017-09-04T12:20:19.570Z,22.48
2017-09-04T12:21:25.416Z,22.55
2017-09-04T12:22:31.265Z,22.06
2017-09-04T12:23:38.156Z,21.75
2017-09-04T12:24:44.968Z,21.96
2017-09-04T12:25:51.506Z,22.28
2017-09-04T12:26:57.540Z,22.45
2017-09-04T12:28:03.588Z,22.02
2017-09-04T12:29:10.293Z,22.15
2017-09-04T12:30:16.420Z,22.18
2017-09-04T12:31:22.821Z,22.06
2017-09-04T12:32:28.841Z,22.42
2017-09-04T12:33:34.874Z,22.67
2017-09-04T12:34:41.571Z,22.25
2017-09-04T12:35:49.166Z,22.09
2017-09-04T12:36:55.274Z,21.65
2017-09-04T12:38:01.329Z,21.71
2017-09-04T12:39:07.483Z,22.06
2017-09-04T12:40:14.384Z,22.39
2017-09-04T12:41:20.475Z,22.29
2017-09-04T12:42:26.526Z,21.78
2017-09-04T12:43:32.594Z,21.37
2017-09-04T12:44:38.670Z,21.48
2017-09-04T12:45:44.751Z,21.88
2017-09-04T12:46:50.653Z,22.05
2017-09-04T12:47:56.946Z,21.76
2017-09-04T12:49:02.853Z,21.77
2017-09-04T12:50:08.911Z,21.88
2017-09-04T12:51:15.035Z,22.02
2017-09-04T12:52:21.160Z,21.66
2017-09-04T12:53:27.239Z,21.82
2017-09-04T12:54:33.114Z,21.97
2017-09-04T12:55:39.234Z,22.02
2017-09-04T12:56:45.335Z,21.70
2017-09-04T12:57:51.370Z,21.51
2017-09-04T12:58:57.416Z,21.54
2017-09-04T13:00:03.495Z,21.34
2017-09-04T13:01:09.578Z,21.04
2017-09-04T13:02:15.798Z,20.86
2017-09-04T13:03:22.465Z,20.65
2017-09-04T13:04:28.492Z,20.88
2017-09-04T13:05:34.350Z,21.02
2017-09-04T13:06:41.088Z,20.98
2017-09-04T13:07:46.993Z,20.68
2017-09-04T13:08:53.076Z,20.71
2017-09-04T13:09:58.926Z,20.85
2017-09-04T13:11:15.421Z,20.84
2017-09-04T13:12:22.251Z,20.48
2017-09-04T13:13:30.681Z,20.47
2017-09-04T13:14:42.362Z,20.47
2017-09-04T13:15:53.790Z,20.44
2017-09-04T13:17:05.341Z,20.21
2017-09-04T13:18:16.818Z,20.29
2017-09-04T13:19:40.631Z,20.18
2017-09-04T13:21:04.375Z,20.45
2017-09-04T13:22:16.085Z,20.49
2017-09-04T13:23:27.480Z,20.70
2017-09-04T13:24:49.374Z,20.48
2017-09-04T13:26:13.185Z,20.72
2017-09-04T13:27:24.801Z,20.77
2017-09-04T13:28:36.349Z,20.76
2017-09-04T13:29:59.832Z,21.00
2017-09-04T13:31:36.955Z,20.93
2017-09-04T13:33:14.883Z,21.22
2017-09-04T13:34:49.843Z,21.57
2017-09-04T13:36:24.728Z,22.13
2017-09-04T13:37:40.518Z,22.66
2017-09-04T13:38:52.210Z,22.46
2017-09-04T13:40:19.504Z,21.69
2017-09-04T13:41:43.911Z,21.58
2017-09-04T13:42:55.568Z,21.85
2017-09-04T13:44:22.324Z,22.19
2017-09-04T13:45:46.113Z,22.23
2017-09-04T13:46:57.625Z,22.35
2017-09-04T13:48:09.118Z,21.76
2017-09-04T13:49:20.706Z,21.71
2017-09-04T13:50:44.215Z,21.93
2017-09-04T13:52:15.183Z,21.54
2017-09-04T13:53:26.603Z,21.35
2017-09-04T13:54:47.431Z,21.02
2017-09-04T13:56:11.185Z,20.98
2017-09-04T13:57:32.127Z,21.02
2017-09-04T13:58:38.827Z,20.97
2017-09-04T13:59:49.754Z,20.77
2017-09-04T14:01:02.144Z,20.99
2017-09-04T14:02:14.047Z,21.28
2017-09-04T14:03:21.477Z,21.51
2017-09-04T14:04:43.828Z,21.64
2017-09-04T14:06:08.093Z,21.33
2017-09-04T14:07:30.414Z,21.50
2017-09-04T14:08:51.116Z,21.47
2017-09-04T14:10:02.762Z,21.29
2017-09-04T14:11:14.335Z,20.93
2017-09-04T14:12:26.155Z,20.91
2017-09-04T14:13:37.723Z,20.84
2017-09-04T14:14:44.752Z,20.67
2017-09-04T14:15:53.336Z,20.58
2017-09-04T14:17:02.823Z,20.54
2017-09-04T14:18:09.828Z,20.61
2017-09-04T14:19:16.720Z,20.52
2017-09-04T14:20:22.743Z,20.53
2017-09-04T14:21:28.761Z,20.67
2017-09-04T14:22:34.788Z,20.79
2017-09-04T14:23:41.518Z,20.78
2017-09-04T14:24:47.574Z,20.74
2017-09-04T14:25:53.724Z,20.78
2017-09-04T14:26:59.827Z,20.81
2017-09-04T14:28:05.827Z,20.65
2017-09-04T14:29:11.813Z,20.73
2017-09-04T14:30:17.880Z,20.81
2017-09-04T14:31:23.809Z,20.73
2017-09-04T14:32:29.861Z,20.62
2017-09-04T14:33:36.606Z,20.52
2017-09-04T14:34:42.668Z,20.55
2017-09-04T14:35:48.692Z,20.63
2017-09-04T14:36:54.911Z,20.67
2017-09-04T14:38:00.845Z,20.64
2017-09-04T14:39:06.843Z,20.87
2017-09-04T14:40:18.341Z,20.87
2017-09-04T14:41:35.092Z,20.61
2017-09-04T14:42:46.391Z,20.86
2017-09-04T14:43:58.063Z,20.80
2017-09-04T14:45:06.912Z,20.78
2017-09-04T14:46:15.399Z,20.88